CDT,Max TemperatureF,Mean TemperatureF,Min TemperatureF,Max Dew PointF,MeanDew PointF,Min DewpointF,Max Humidity, Mean Humidity, Min Humidity, Max Sea Level PressureIn, Mean Sea Level PressureIn, Min Sea Level PressureIn, Max VisibilityMiles, Mean VisibilityMiles, Min VisibilityMiles, Max Wind SpeedMPH, Mean Wind SpeedMPH, Max Gust SpeedMPH,PrecipitationIn, CloudCover, Events, WindDirDegrees
2013-8-1,84,75,66,72,67,64,100,78,51,30.08,30.03,29.99,10,10,6,13,5,17,0.00,3,,353
2013-8-2,82,72,62,68,64,61,100,75,48,30.06,30.02,29.98,10,10,9,8,3,,0.00,0,,184
2013-8-3,82,75,68,73,70,64,100,86,70,30.08,30.02,29.96,10,8,1,16,5,18,1.08,5,,245
2013-8-4,78,72,66,73,65,59,100,77,51,30.15,30.11,30.06,10,9,3,12,5,,0.00,0,,34
2013-8-5,75,70,64,68,63,59,100,84,61,30.12,30.04,29.95,10,10,2,8,3,,0.03,7,,141
2013-8-6,80,74,68,75,72,68,100,92,79,29.99,29.94,29.90,10,10,9,12,4,,0.00,6,,184
2013-8-7,84,78,71,77,73,72,100,93,66,29.99,29.93,29.90,10,9,2,14,5,20,0.22,4,,198
2013-8-8,84,76,69,75,73,70,100,94,74,29.98,29.94,29.91,10,8,0,30,3,41,0.78,4,,179
2013-8-9,86,78,71,75,73,72,100,87,66,30.06,29.99,29.94,10,9,2,13,3,,0.17,4,,262
2013-8-10,82,76,71,73,72,72,100,93,70,30.14,30.08,30.03,10,8,0,9,2,,1.27,5,,279
2013-8-11,84,76,69,75,73,70,100,87,66,30.15,30.10,30.06,10,8,2,8,1,,0.00,6,,318
2013-8-12,82,76,71,75,73,70,100,95,79,30.08,30.01,29.93,10,8,0,17,5,25,1.00,4,,207
2013-8-13,82,75,66,72,68,63,100,83,54,30.06,29.99,29.94,10,8,2,12,7,,0.00,3,,333
2013-8-14,73,65,57,63,54,50,88,69,46,30.15,30.11,30.05,10,10,10,18,9,23,0.00,0,,35
2013-8-15,75,64,53,57,55,52,94,71,47,30.12,30.09,30.04,10,10,10,14,6,18,0.00,0,,38
2013-8-16,75,67,59,64,61,57,100,82,69,30.11,30.08,30.04,10,10,9,9,5,,0.00,5,,40
2013-8-17,75,70,64,68,66,63,100,91,73,30.15,30.10,30.07,10,9,1,12,5,,0.67,6,,47
2013-8-18,73,68,64,68,66,64,100,93,78,30.17,30.12,30.08,10,8,0,8,1,,0.00,6,,358
2013-8-19,82,71,60,72,66,61,100,88,58,30.15,30.10,30.05,10,6,0,7,1,,0.00,3,,76
2013-8-20,84,74,64,73,69,64,100,86,58,30.13,30.09,30.05,10,8,0,9,1,,0.00,1,,124
2013-8-21,87,78,68,73,71,68,100,83,52,30.17,30.12,30.08,10,9,5,9,3,,0.00,1,,223
2013-8-22,89,79,69,75,71,66,100,82,46,30.16,30.10,30.04,10,9,0,8,4,,0.00,0,,231
2013-8-23,89,79,69,73,71,68,100,81,52,30.10,30.07,30.03,10,9,2,8,3,,0.00,1,,330
2013-8-24,86,77,68,73,69,66,100,80,51,30.21,30.16,30.10,10,8,0,12,4,20,0.00,1,,74
2013-8-25,84,75,66,73,70,64,100,83,62,30.30,30.25,30.21,10,10,3,9,4,16,0.00,2,,158
2013-8-26,86,77,68,73,69,66,100,78,58,30.29,30.22,30.15,10,10,7,9,5,,0.00,1,,207
2013-8-27,86,77,68,73,69,64,94,76,58,30.16,30.12,30.06,10,10,10,12,7,,0.00,0,,234
2013-8-28,91,81,71,73,69,66,88,71,43,30.09,30.06,30.02,10,10,8,13,7,22,0.00,0,,254
2013-8-29,93,82,71,75,71,68,94,73,49,30.06,30.02,29.98,10,10,8,9,6,,0.00,0,,278
2013-8-30,93,83,73,75,72,68,94,72,44,30.02,29.96,29.90,10,10,10,9,5,17,0.00,0,,255
2013-8-31,93,84,75,75,73,72,94,73,52,29.93,29.88,29.82,10,10,5,10,6,16,0.00,0,,221